createdAt,value
2024-01-21T00:10:37.778Z,98239.72
2024-01-21T00:20:58.530Z,98236.16
2024-01-21T00:31:19.221Z,98231.22
2024-01-21T00:41:44.731Z,98228.03
2024-01-21T00:52:09.653Z,98237.63
2024-01-21T01:02:30.395Z,98227.41
2024-01-21T01:12:51.160Z,98224.03
2024-01-21T01:23:12.044Z,98211.34
2024-01-21T01:33:33.374Z,98226.75
2024-01-21T01:43:54.530Z,98221.84
2024-01-21T01:54:17.957Z,98220.25
2024-01-21T02:04:38.788Z,98222.06
2024-01-21T02:14:59.640Z,98230.56
2024-01-21T02:25:20.655Z,98217.84
2024-01-21T02:35:41.619Z,98221.44
2024-01-21T02:46:02.485Z,98204.34
2024-01-21T02:56:24.638Z,98198.56
2024-01-21T03:06:45.877Z,98208.72
2024-01-21T03:17:06.972Z,98213.22
2024-01-21T03:27:28.017Z,98212.22
2024-01-21T03:37:49.801Z,98202.91
2024-01-21T03:48:10.734Z,98207.28
2024-01-21T03:58:31.861Z,98199.78
2024-01-21T04:08:52.546Z,98186.19
2024-01-21T04:19:13.921Z,98176.00
2024-01-21T04:29:34.775Z,98166.56
2024-01-21T04:39:55.624Z,98153.88
2024-01-21T04:50:16.478Z,98168.47
2024-01-21T05:00:37.299Z,98158.31
2024-01-21T05:10:58.380Z,98136.47
2024-01-21T05:21:21.867Z,98133.81
2024-01-21T05:31:42.799Z,98148.13
2024-01-21T05:42:05.844Z,98139.88
2024-01-21T05:52:26.939Z,98158.59
2024-01-21T06:02:47.893Z,98154.34
2024-01-21T06:13:09.086Z,98139.00
2024-01-21T06:23:29.833Z,98154.41
2024-01-21T06:33:50.846Z,98131.31
2024-01-21T06:44:11.993Z,98135.56
2024-01-21T06:54:32.633Z,98152.56
2024-01-21T07:04:53.450Z,98158.50
2024-01-21T07:15:14.423Z,98152.69
2024-01-21T07:25:35.151Z,98161.09
2024-01-21T07:35:56.042Z,98168.75
2024-01-21T07:46:17.048Z,98169.56
2024-01-21T07:56:37.907Z,98167.03
2024-01-21T08:06:58.963Z,98172.06
2024-01-21T08:17:21.413Z,98171.88
2024-01-21T08:27:42.266Z,98169.34
2024-01-21T08:38:03.325Z,98158.34
2024-01-21T08:48:24.589Z,98142.84
2024-01-21T08:58:46.506Z,98139.94
2024-01-21T09:09:07.467Z,98150.25
2024-01-21T09:19:29.435Z,98142.53
2024-01-21T09:29:50.890Z,98134.78
2024-01-21T09:40:12.545Z,98121.25
2024-01-21T09:50:35.551Z,98113.22
2024-01-21T10:00:57.158Z,98069.28
2024-01-21T10:11:18.286Z,98056.16
2024-01-21T10:21:39.663Z,98046.88
2024-01-21T10:32:01.014Z,98038.06
2024-01-21T10:42:22.246Z,98037.56
2024-01-21T10:52:46.364Z,98040.13
2024-01-21T11:03:30.519Z,98041.03
2024-01-21T11:13:53.002Z,98048.19
2024-01-21T11:24:15.252Z,98046.94
2024-01-21T11:34:41.609Z,98066.16
2024-01-21T11:45:06.898Z,98052.00
2024-01-21T11:55:27.709Z,98034.47
2024-01-21T12:05:49.777Z,97999.09
2024-01-21T12:16:12.225Z,98006.25
2024-01-21T12:26:33.693Z,97999.53
2024-01-21T12:36:57.781Z,97957.31
2024-01-21T12:47:18.951Z,97944.50
2024-01-21T12:57:40.051Z,97976.34
2024-01-21T13:08:02.077Z,97947.69
2024-01-21T13:18:23.190Z,97970.22
2024-01-21T13:29:02.585Z,97960.34
2024-01-21T13:39:26.308Z,97948.66
2024-01-21T13:49:47.499Z,97929.13
2024-01-21T14:00:09.395Z,97932.84
2024-01-21T14:10:30.192Z,97977.94
2024-01-21T14:20:50.901Z,97991.44
2024-01-21T14:31:11.770Z,98016.69
2024-01-21T14:41:32.677Z,98016.38
2024-01-21T14:51:53.825Z,97957.72
2024-01-21T15:02:14.723Z,97973.97
2024-01-21T15:12:35.618Z,97939.50
2024-01-21T15:22:56.471Z,97949.38
2024-01-21T15:33:17.518Z,97925.03
2024-01-21T15:43:38.643Z,97935.19
2024-01-21T15:54:00.271Z,97913.44
2024-01-21T16:04:21.330Z,97898.03
2024-01-21T16:14:42.529Z,97923.72
2024-01-21T16:25:05.421Z,98010.00
2024-01-21T16:35:26.542Z,98046.88
2024-01-21T16:45:48.015Z,98021.88
2024-01-21T16:56:08.978Z,98027.91
2024-01-21T17:06:30.225Z,98039.69
2024-01-21T17:16:51.045Z,98032.53
2024-01-21T17:27:12.258Z,98030.31
2024-01-21T17:37:33.353Z,98012.97
2024-01-21T17:47:54.564Z,98008.13
2024-01-21T17:58:15.343Z,98010.75
2024-01-21T18:08:36.357Z,98018.31
2024-01-21T18:18:57.655Z,98007.97
2024-01-21T18:29:26.452Z,97997.38
2024-01-21T18:39:56.625Z,97984.84
2024-01-21T18:50:17.735Z,97988.50
2024-01-21T19:00:38.622Z,97977.31
2024-01-21T19:11:02.193Z,97974.31
2024-01-21T19:21:27.659Z,97966.13
2024-01-21T19:31:48.610Z,97967.41
2024-01-21T19:42:09.457Z,97955.53
2024-01-21T19:52:30.294Z,97957.75
2024-01-21T20:02:51.383Z,97967.75
2024-01-21T20:13:13.124Z,97963.25
2024-01-21T20:23:34.218Z,97943.28
2024-01-21T20:33:56.319Z,97942.91
2024-01-21T20:44:17.250Z,97927.53
2024-01-21T20:54:40.117Z,97927.91
2024-01-21T21:05:01.032Z,97928.19
2024-01-21T21:15:22.614Z,97915.13
2024-01-21T21:25:43.624Z,97909.28
2024-01-21T21:36:05.584Z,97883.41
2024-01-21T21:46:26.491Z,97866.78
2024-01-21T21:56:47.934Z,97861.47
2024-01-21T22:07:09.178Z,97868.38
2024-01-21T22:17:30.633Z,97844.38
2024-01-21T22:27:51.525Z,97832.16
2024-01-21T22:38:12.422Z,97813.25
2024-01-21T22:48:33.328Z,97796.63
2024-01-21T22:58:54.522Z,97795.13
2024-01-21T23:09:15.276Z,97778.09
2024-01-21T23:19:36.074Z,97750.59
2024-01-21T23:29:56.870Z,97741.66
2024-01-21T23:40:17.769Z,97723.16
2024-01-21T23:50:38.558Z,97705.94
